ADDS METAR Data INFO
IDs: Format: Raw Decoded Include TAF

Data at: 0510 UTC 23 May 2017

KPOY 230455Z AUTO 29003KT 10SM CLR 07/01 A3025 RMK AO2
KPOY 230435Z AUTO 27004KT 10SM CLR 06/02 A3025 RMK AO2
KPOY 230415Z AUTO 27006KT 10SM CLR 07/02 A3026 RMK AO2
KPOY 230355Z AUTO 25007KT 10SM CLR 07/02 A3025 RMK AO2
KPOY 230335Z AUTO 28005KT 10SM SCT060 07/02 A3025 RMK AO2
KPOY 230315Z AUTO 31009KT 10SM SCT060 08/02 A3025 RMK AO2
KPOY 230255Z AUTO 28005KT 10SM CLR 08/03 A3024 RMK AO2
KPOY 230235Z AUTO 27006KT 10SM CLR 10/02 A3023 RMK AO2
KPOY 230215Z AUTO 33006KT 10SM CLR 10/02 A3023 RMK AO2
KPOY 230155Z AUTO 34007KT 10SM CLR 11/02 A3023 RMK AO2 LTG DSNT SE
KPOY 230135Z AUTO 31007KT 10SM SCT048 SCT060 SCT075 12/02 A3022 RMK AO2 LTG DSNT SE
KPOY 230115Z AUTO 27011G14KT 10SM SCT050 SCT060 BKN095 12/03 A3022 RMK AO2
KPOY 230055Z AUTO 32008KT 10SM CLR 12/03 A3022 RMK AO2
KPOY 230035Z AUTO 32013G21KT 10SM CLR 14/02 A3022 RMK AO2
KPOY 230015Z AUTO 34011G16KT 10SM CLR 14/02 A3022 RMK AO2
KPOY 222355Z AUTO 33012G15KT 10SM CLR 14/02 A3022 RMK AO2
KPOY 222335Z AUTO 31010G19KT 10SM SCT075 13/02 A3022 RMK AO2
KPOY 222315Z AUTO 33013G18KT 10SM SCT075 12/02 A3022 RMK AO2
KPOY 222255Z AUTO 33013KT 10SM CLR 13/03 A3022 RMK AO2
KPOY 222235Z AUTO 30012G19KT 10SM CLR 12/04 A3023 RMK AO2
KPOY 222215Z AUTO 32015G23KT 10SM SCT028 SCT048 SCT090 10/05 A3024 RMK AO2
KPOY 222155Z AUTO 31018KT 7SM -RA SCT023 BKN030 BKN048 08/03 A3025 RMK AO2 LTG DSNT SE
KPOY 222135Z AUTO 33021G34KT 3SM +RA SCT021 BKN029 OVC070 07/02 A3028 RMK AO2
KPOY 222115Z AUTO 01030G36KT 10SM SCT048 BKN060 BKN070 10/03 A3025 RMK AO2
KPOY 222055Z AUTO 01024G29KT 10SM SCT050 SCT060 12/02 A3024 RMK AO2
KPOY 222035Z AUTO 33020G27KT 10SM CLR 13/00 A3022 RMK AO2 LTG DSNT NW
KPOY 222015Z AUTO 33019G28KT 10SM TS CLR 14/01 A3021 RMK AO2 LTG DSNT E
KPOY 221955Z AUTO 32023G29KT 10SM SCT120 13/02 A3020 RMK AO2
KPOY 221935Z AUTO 33021G30KT 10SM CLR 13/02 A3020 RMK AO2
KPOY 221915Z AUTO 33022G30KT 10SM SCT110 13/02 A3020 RMK AO2
KPOY 221855Z AUTO 32025G30KT 10SM SCT110 12/04 A3022 RMK AO2 LTG DSNT NE
KPOY 221835Z AUTO 32024G32KT 10SM CLR 12/05 A3022 RMK AO2 LTG DSNT SE
KPOY 221815Z AUTO 31023G30KT 10SM CLR 11/05 A3022 RMK AO2
KPOY 221755Z AUTO 31019G25KT 10SM SCT070 SCT100 09/06 A3023 RMK AO2
KPOY 221735Z AUTO 30018G23KT 10SM SCT033 SCT046 BKN070 08/06 A3023 RMK AO2
KPOY 221715Z AUTO 32014G22KT 10SM -RA SCT029 BKN033 OVC050 07/05 A3024 RMK AO2
KPOY 221655Z AUTO 33024G28KT 4SM RA SCT023 OVC029 06/05 A3024 RMK AO2
KPOY 221635Z AUTO 33023G29KT 7SM RA SCT016 SCT022 OVC029 06/05 A3024 RMK AO2 LTG DSNT E
KPOY 221615Z AUTO 35018G22KT 5SM RA SCT018 SCT024 OVC031 07/05 A3023 RMK AO2 LTG DSNT E
KPOY 221555Z AUTO 34018G30KT 5SM RA BKN030 OVC035 07/04 A3022 RMK AO2
KPOY 221535Z AUTO 33018G28KT 7SM -RA BKN034 OVC042 07/04 A3022 RMK AO2
KPOY 221515Z AUTO 32020G28KT 7SM -RA BKN032 OVC039 07/04 A3021 RMK AO2 LTG DSNT E
KPOY 221455Z AUTO 32020G28KT 7SM RA BKN030 BKN036 OVC042 07/04 A3022 RMK AO2 LTG DSNT NE AND E
KPOY 221435Z AUTO 30022G31KT 5SM -RA SCT019 BKN030 OVC043 07/03 A3020 RMK AO2
KPOY 221415Z AUTO 34025G35KT 4SM RA SCT019 SCT023 OVC032 07/03 A3021 RMK AO2
KPOY 221355Z AUTO 32026G37KT 10SM -RA SCT035 BKN043 OVC050 08/03 A3020 RMK AO2
KPOY 221335Z AUTO 31018G28KT 10SM SCT040 SCT047 BKN050 11/00 A3019 RMK AO2
KPOY 221315Z AUTO 30018G27KT 10SM -RA SCT039 BKN050 OVC080 10/00 A3019 RMK AO2
KPOY 221255Z AUTO 32022G27KT 10SM SCT050 BKN070 OVC090 11/M01 A3018 RMK AO2
KPOY 221235Z AUTO 31015G25KT 10SM SCT050 BKN070 OVC080 11/M01 A3016 RMK AO2
KPOY 221215Z AUTO 32007KT 10SM BKN070 BKN085 10/00 A3016 RMK AO2
KPOY 221155Z AUTO 30010KT 10SM SCT075 SCT100 BKN120 10/M01 A3015 RMK AO2
KPOY 221135Z AUTO 29010KT 10SM SCT120 10/M01 A3015 RMK AO2
KPOY 221115Z AUTO 28010KT 10SM SCT110 10/M01 A3015 RMK AO2
KPOY 221055Z AUTO 28009KT 10SM SCT090 OVC110 10/M01 A3015 RMK AO2
KPOY 221035Z AUTO 27011G15KT 10SM BKN090 09/M01 A3015 RMK AO2
KPOY 221015Z AUTO 30007KT 10SM SCT090 09/M01 A3016 RMK AO2
KPOY 220955Z AUTO 26008KT 10SM SCT110 08/M02 A3016 RMK AO2
KPOY 220935Z AUTO 25007KT 10SM SCT120 10/M01 A3016 RMK AO2
KPOY 220915Z AUTO 25007KT 10SM CLR 09/M01 A3016 RMK AO2
KPOY 220855Z AUTO 25006KT 10SM SCT080 SCT090 09/00 A3017 RMK AO2
KPOY 220835Z AUTO 26007KT 10SM SCT080 SCT090 BKN110 10/00 A3018 RMK AO2
KPOY 220815Z AUTO 26007KT 10SM SCT090 BKN120 09/00 A3018 RMK AO2
KPOY 220755Z AUTO 28005KT 10SM BKN090 BKN110 10/00 A3018 RMK AO2
KPOY 220735Z AUTO 34005KT 10SM SCT055 SCT070 BKN090 11/00 A3018 RMK AO2
KPOY 220715Z AUTO 32010KT 10SM SCT050 SCT070 BKN095 10/00 A3020 RMK AO2
KPOY 220655Z AUTO 28006KT 10SM SCT095 SCT120 10/00 A3019 RMK AO2
KPOY 220635Z AUTO 30006KT 10SM SCT055 BKN085 OVC120 10/00 A3020 RMK AO2
KPOY 220615Z AUTO 33010G16KT 10SM OVC080 11/00 A3021 RMK AO2
KPOY 220555Z AUTO 28005KT 10SM SCT080 OVC100 10/00 A3020 RMK AO2
KPOY 220535Z AUTO 32005KT 10SM BKN100 09/00 A3020 RMK AO2
KPOY 220515Z AUTO 29007KT 10SM SCT100 SCT120 10/00 A3020 RMK AO2
KPOY 220455Z AUTO 33007KT 10SM BKN110 11/00 A3020 RMK AO2
KPOY 220435Z AUTO 34010KT 10SM BKN110 11/00 A3020 RMK AO2
KPOY 220415Z AUTO 34010KT 10SM SCT120 10/00 A3020 RMK AO2
KPOY 220355Z AUTO 33007KT 10SM CLR 09/00 A3020 RMK AO2
KPOY 220335Z AUTO 33006KT 10SM CLR 10/M01 A3020 RMK AO2
KPOY 220315Z AUTO 31007KT 10SM CLR 11/M01 A3020 RMK AO2
KPOY 220255Z AUTO 33006KT 10SM CLR 10/M01 A3019 RMK AO2
KPOY 220235Z AUTO 34008KT 10SM CLR 12/M02 A3019 RMK AO2
KPOY 220215Z AUTO 35011KT 10SM CLR 13/M02 A3019 RMK AO2
KPOY 220155Z AUTO 35012KT 10SM CLR 14/M02 A3019 RMK AO2
KPOY 220135Z AUTO 34012G19KT 10SM CLR 15/M03 A3018 RMK AO2
KPOY 220115Z AUTO 35012G16KT 10SM CLR 15/M03 A3018 RMK AO2
KPOY 220055Z AUTO 34015KT 10SM CLR 16/M03 A3018 RMK AO2
KPOY 220035Z AUTO 33016G24KT 10SM CLR 16/M04 A3019 RMK AO2
KPOY 220015Z AUTO 32015G23KT 10SM CLR 16/M03 A3019 RMK AO2 LTG DSNT S
KPOY 212355Z AUTO 34013G25KT 10SM CLR 16/M03 A3019 RMK AO2
KPOY 212335Z AUTO 33016G28KT 10SM CLR 16/M04 A3019 RMK AO2
KPOY 212315Z AUTO 35022G30KT 10SM CLR 16/M05 A3019 RMK AO2
KPOY 212255Z AUTO 33021G25KT 10SM CLR 16/M03 A3019 RMK AO2
KPOY 212235Z AUTO 34018G27KT 10SM CLR 17/M04 A3019 RMK AO2 LTG DSNT S
KPOY 212215Z AUTO 33015G28KT 10SM CLR 17/M05 A3019 RMK AO2 LTG DSNT S
KPOY 212155Z AUTO 33020G27KT 10SM CLR 16/M06 A3020 RMK AO2
KPOY 212135Z AUTO 33014G27KT 10SM CLR 17/M06 A3020 RMK AO2
KPOY 212115Z AUTO 34018G26KT 10SM CLR 16/M05 A3021 RMK AO2 LTG DSNT S
KPOY 212055Z AUTO 33019G27KT 10SM CLR 16/M06 A3021 RMK AO2
KPOY 212035Z AUTO 32014G24KT 10SM CLR 16/M05 A3021 RMK AO2
KPOY 212015Z AUTO 33018G27KT 10SM CLR 16/M04 A3021 RMK AO2
KPOY 211955Z AUTO 35022G26KT 10SM SCT070 16/M02 A3022 RMK AO2
KPOY 211935Z AUTO 34012G25KT 10SM SCT070 16/M05 A3022 RMK AO2
KPOY 211915Z AUTO 33018G24KT 10SM SCT070 15/M03 A3022 RMK AO2
KPOY 211855Z AUTO 35015G26KT 10SM SCT060 SCT080 SCT090 16/M03 A3022 RMK AO2
KPOY 211835Z AUTO 34014G17KT 10SM SCT050 SCT070 SCT090 15/00 A3022 RMK AO2
KPOY 211815Z AUTO 33013KT 10SM -RA SCT050 BKN060 OVC085 12/01 A3023 RMK AO2
KPOY 211755Z AUTO 34012KT 10SM SCT049 SCT055 BKN075 13/00 A3023 RMK AO2
KPOY 211735Z AUTO 36013G19KT 10SM SCT040 SCT049 BKN070 14/00 A3023 RMK AO2
KPOY 211715Z AUTO 36014G17KT 10SM SCT042 BKN048 BKN050 12/01 A3023 RMK AO2


Page loaded:  05:10 UTC  |   10:10 PM Pacific  |   11:10 PM Mountain  |   12:10 AM Central  |   01:10 AM Eastern

 

ADVISORIES

FORECASTS

FORECASTS

OBSERVATIONS

USER TOOLS

ABOUT US